sensor_id;sensor_type;location;lat;lon;timestamp;temperature;humidity
6930;DHT22;3504;52.616;13.238;2022-11-02T00:01:43;8.77;85.08
6930;DHT22;3504;52.616;13.238;2022-11-02T00:06:44;8.73;85.03
6930;DHT22;3504;52.616;13.238;2022-11-02T00:11:44;8.74;85.12
6930;DHT22;3504;52.616;13.238;2022-11-02T00:16:45;8.73;84.97
6930;DHT22;3504;52.616;13.238;2022-11-02T00:21:45;8.71;84.95
6930;DHT22;3504;52.616;13.238;2022-11-02T00:26:46;8.67;84.93
6930;DHT22;3504;52.616;13.238;2022-11-02T00:31:46;8.69;85.16
6930;DHT22;3504;52.616;13.238;2022-11-02T00:36:47;8.63;85.27
6930;DHT22;3504;52.616;13.238;2022-11-02T00:41:47;8.56;85.49
6930;DHT22;3504;52.616;13.238;2022-11-02T00:46:48;8.53;85.28
6930;DHT22;3504;52.616;13.238;2022-11-02T00:51:49;8.50;85.50
6930;DHT22;3504;52.616;13.238;2022-11-02T00:56:50;8.52;85.48
6930;DHT22;3504;52.616;13.238;2022-11-02T01:01:50;8.52;85.87
6930;DHT22;3504;52.616;13.238;2022-11-02T01:06:51;8.49;86.00
6930;DHT22;3504;52.616;13.238;2022-11-02T01:11:51;8.50;86.21
6930;DHT22;3504;52.616;13.238;2022-11-02T01:16:52;8.50;86.63
6930;DHT22;3504;52.616;13.238;2022-11-02T01:21:52;8.53;86.53
6930;DHT22;3504;52.616;13.238;2022-11-02T01:26:53;8.57;87.26
6930;DHT22;3504;52.616;13.238;2022-11-02T01:31:53;8.61;87.76
6930;DHT22;3504;52.616;13.238;2022-11-02T01:36:54;8.60;87.41
6930;DHT22;3504;52.616;13.238;2022-11-02T01:41:54;8.63;87.68
6930;DHT22;3504;52.616;13.238;2022-11-02T01:47:11;8.64;87.35
6930;DHT22;3504;52.616;13.238;2022-11-02T01:52:17;8.63;87.12
6930;DHT22;3504;52.616;13.238;2022-11-02T01:57:21;8.61;86.98
6930;DHT22;3504;52.616;13.238;2022-11-02T02:02:24;8.63;87.06
6930;DHT22;3504;52.616;13.238;2022-11-02T02:07:26;8.59;86.97
6930;DHT22;3504;52.616;13.238;2022-11-02T02:12:28;8.53;87.16
6930;DHT22;3504;52.616;13.238;2022-11-02T02:18:00;8.50;87.28
6930;DHT22;3504;52.616;13.238;2022-11-02T02:28:55;8.45;86.46
6930;DHT22;3504;52.616;13.238;2022-11-02T02:34:14;8.40;86.42
6930;DHT22;3504;52.616;13.238;2022-11-02T02:39:31;8.36;86.78
6930;DHT22;3504;52.616;13.238;2022-11-02T02:44:36;8.35;86.64
6930;DHT22;3504;52.616;13.238;2022-11-02T02:49:48;8.33;86.51
6930;DHT22;3504;52.616;13.238;2022-11-02T02:54:51;8.29;86.52
6930;DHT22;3504;52.616;13.238;2022-11-02T02:59:54;8.25;86.37
6930;DHT22;3504;52.616;13.238;2022-11-02T03:04:55;8.21;86.58
6930;DHT22;3504;52.616;13.238;2022-11-02T03:10:19;8.22;86.66
6930;DHT22;3504;52.616;13.238;2022-11-02T03:15:29;8.21;86.48
6930;DHT22;3504;52.616;13.238;2022-11-02T03:21:00;8.19;86.59
6930;DHT22;3504;52.616;13.238;2022-11-02T03:36:47;8.14;87.02
6930;DHT22;3504;52.616;13.238;2022-11-02T03:41:51;8.15;87.14
6930;DHT22;3504;52.616;13.238;2022-11-02T03:46:57;8.14;87.10
6930;DHT22;3504;52.616;13.238;2022-11-02T03:52:09;8.14;87.04
6930;DHT22;3504;52.616;13.238;2022-11-02T03:57:28;8.18;86.88
6930;DHT22;3504;52.616;13.238;2022-11-02T04:02:35;8.19;86.72
6930;DHT22;3504;52.616;13.238;2022-11-02T04:07:40;8.18;86.97
6930;DHT22;3504;52.616;13.238;2022-11-02T04:13:02;8.19;87.45
6930;DHT22;3504;52.616;13.238;2022-11-02T04:18:21;8.19;87.35
6930;DHT22;3504;52.616;13.238;2022-11-02T04:23:54;8.24;87.81
6930;DHT22;3504;52.616;13.238;2022-11-02T04:29:14;8.25;87.50
6930;DHT22;3504;52.616;13.238;2022-11-02T04:34:16;8.21;87.87
6930;DHT22;3504;52.616;13.238;2022-11-02T04:39:16;8.22;88.22
6930;DHT22;3504;52.616;13.238;2022-11-02T04:44:17;8.26;88.16
6930;DHT22;3504;52.616;13.238;2022-11-02T04:49:24;8.28;87.96
6930;DHT22;3504;52.616;13.238;2022-11-02T04:54:25;8.29;87.89
6930;DHT22;3504;52.616;13.238;2022-11-02T04:59:30;8.30;87.89
6930;DHT22;3504;52.616;13.238;2022-11-02T05:04:32;8.30;87.73
6930;DHT22;3504;52.616;13.238;2022-11-02T05:09:32;8.30;87.54
6930;DHT22;3504;52.616;13.238;2022-11-02T05:14:34;8.28;87.68
6930;DHT22;3504;52.616;13.238;2022-11-02T05:19:35;8.24;87.86
6930;DHT22;3504;52.616;13.238;2022-11-02T05:24:38;8.28;87.62
6930;DHT22;3504;52.616;13.238;2022-11-02T05:29:41;8.22;87.76
6930;DHT22;3504;52.616;13.238;2022-11-02T05:34:41;8.26;87.83
6930;DHT22;3504;52.616;13.238;2022-11-02T05:39:43;8.30;87.73
6930;DHT22;3504;52.616;13.238;2022-11-02T05:44:44;8.32;87.58
6930;DHT22;3504;52.616;13.238;2022-11-02T05:49:45;8.30;87.57
6930;DHT22;3504;52.616;13.238;2022-11-02T05:54:45;8.32;87.67
6930;DHT22;3504;52.616;13.238;2022-11-02T05:59:46;8.38;87.45
6930;DHT22;3504;52.616;13.238;2022-11-02T06:04:46;8.35;87.58
6930;DHT22;3504;52.616;13.238;2022-11-02T06:09:47;8.36;87.29
6930;DHT22;3504;52.616;13.238;2022-11-02T06:14:47;8.39;87.23
6930;DHT22;3504;52.616;13.238;2022-11-02T06:19:48;8.39;87.19
6930;DHT22;3504;52.616;13.238;2022-11-02T06:24:48;8.43;87.18
6930;DHT22;3504;52.616;13.238;2022-11-02T06:29:49;8.38;87.23
6930;DHT22;3504;52.616;13.238;2022-11-02T06:34:49;8.45;87.38
6930;DHT22;3504;52.616;13.238;2022-11-02T06:39:50;8.48;87.24
6930;DHT22;3504;52.616;13.238;2022-11-02T06:44:50;8.50;87.29
6930;DHT22;3504;52.616;13.238;2022-11-02T06:49:51;8.57;87.24
6930;DHT22;3504;52.616;13.238;2022-11-02T06:54:51;8.59;87.27
6930;DHT22;3504;52.616;13.238;2022-11-02T06:59:52;8.63;87.21
6930;DHT22;3504;52.616;13.238;2022-11-02T07:04:52;8.71;87.17
6930;DHT22;3504;52.616;13.238;2022-11-02T07:09:53;8.80;87.24
6930;DHT22;3504;52.616;13.238;2022-11-02T07:14:53;8.89;87.20
6930;DHT22;3504;52.616;13.238;2022-11-02T07:19:54;8.97;87.13
6930;DHT22;3504;52.616;13.238;2022-11-02T07:24:54;9.11;87.12
6930;DHT22;3504;52.616;13.238;2022-11-02T07:29:55;9.32;86.92
6930;DHT22;3504;52.616;13.238;2022-11-02T07:34:55;9.56;87.23
6930;DHT22;3504;52.616;13.238;2022-11-02T07:39:58;9.83;87.09
6930;DHT22;3504;52.616;13.238;2022-11-02T07:45:00;10.02;86.36
6930;DHT22;3504;52.616;13.238;2022-11-02T07:50:01;10.12;86.01
6930;DHT22;3504;52.616;13.238;2022-11-02T07:55:01;10.18;85.49
6930;DHT22;3504;52.616;13.238;2022-11-02T08:00:02;10.21;85.67
6930;DHT22;3504;52.616;13.238;2022-11-02T08:05:11;10.25;85.22
6930;DHT22;3504;52.616;13.238;2022-11-02T08:10:12;10.37;85.57
6930;DHT22;3504;52.616;13.238;2022-11-02T08:15:16;10.51;85.25
6930;DHT22;3504;52.616;13.238;2022-11-02T08:20:16;10.68;84.61
6930;DHT22;3504;52.616;13.238;2022-11-02T08:25:17;10.76;84.77
6930;DHT22;3504;52.616;13.238;2022-11-02T08:30:17;10.78;84.49
6930;DHT22;3504;52.616;13.238;2022-11-02T08:35:18;10.82;85.27
6930;DHT22;3504;52.616;13.238;2022-11-02T08:40:18;10.91;85.20
6930;DHT22;3504;52.616;13.238;2022-11-02T08:45:19;11.23;84.34
6930;DHT22;3504;52.616;13.238;2022-11-02T08:50:20;11.56;83.75
6930;DHT22;3504;52.616;13.238;2022-11-02T08:55:21;11.94;83.47
6930;DHT22;3504;52.616;13.238;2022-11-02T09:00:27;12.17;81.42
6930;DHT22;3504;52.616;13.238;2022-11-02T09:05:47;12.32;80.83
6930;DHT22;3504;52.616;13.238;2022-11-02T09:10:50;12.60;80.35
6930;DHT22;3504;52.616;13.238;2022-11-02T09:15:53;12.83;79.02
6930;DHT22;3504;52.616;13.238;2022-11-02T09:20:54;13.03;79.09
6930;DHT22;3504;52.616;13.238;2022-11-02T09:25:56;13.24;77.50
6930;DHT22;3504;52.616;13.238;2022-11-02T09:30:57;13.53;76.74
6930;DHT22;3504;52.616;13.238;2022-11-02T09:36:02;13.82;75.57
6930;DHT22;3504;52.616;13.238;2022-11-02T09:46:42;14.26;73.65
6930;DHT22;3504;52.616;13.238;2022-11-02T09:51:51;14.45;73.41
6930;DHT22;3504;52.616;13.238;2022-11-02T09:57:01;14.41;72.06
6930;DHT22;3504;52.616;13.238;2022-11-02T10:02:39;14.40;72.32
6930;DHT22;3504;52.616;13.238;2022-11-02T10:13:54;14.74;69.92
6930;DHT22;3504;52.616;13.238;2022-11-02T10:18:58;14.95;70.40
6930;DHT22;3504;52.616;13.238;2022-11-02T10:24:31;15.05;68.14
6930;DHT22;3504;52.616;13.238;2022-11-02T10:29:52;15.13;68.26
6930;DHT22;3504;52.616;13.238;2022-11-02T10:34:54;15.32;68.45
6930;DHT22;3504;52.616;13.238;2022-11-02T10:41:05;15.42;66.62
6930;DHT22;3504;52.616;13.238;2022-11-02T10:46:08;15.46;65.65
6930;DHT22;3504;52.616;13.238;2022-11-02T10:51:11;15.70;65.78
6930;DHT22;3504;52.616;13.238;2022-11-02T10:56:20;15.60;63.31
6930;DHT22;3504;52.616;13.238;2022-11-02T11:01:21;15.57;64.02
6930;DHT22;3504;52.616;13.238;2022-11-02T11:06:30;15.57;64.12
6930;DHT22;3504;52.616;13.238;2022-11-02T11:11:36;15.57;63.87
6930;DHT22;3504;52.616;13.238;2022-11-02T11:16:42;15.59;65.23
6930;DHT22;3504;52.616;13.238;2022-11-02T11:21:44;15.67;64.42
6930;DHT22;3504;52.616;13.238;2022-11-02T11:26:44;15.46;64.44
6930;DHT22;3504;52.616;13.238;2022-11-02T11:31:45;15.26;65.54
6930;DHT22;3504;52.616;13.238;2022-11-02T11:36:45;15.13;65.97
6930;DHT22;3504;52.616;13.238;2022-11-02T11:41:46;15.03;66.45
6930;DHT22;3504;52.616;13.238;2022-11-02T11:46:55;14.93;66.44
6930;DHT22;3504;52.616;13.238;2022-11-02T11:51:57;15.00;66.11
6930;DHT22;3504;52.616;13.238;2022-11-02T12:02:30;14.96;65.80
6930;DHT22;3504;52.616;13.238;2022-11-02T12:07:58;14.93;66.97
6930;DHT22;3504;52.616;13.238;2022-11-02T12:24:55;14.88;63.99
6930;DHT22;3504;52.616;13.238;2022-11-02T12:35:48;14.91;63.15
6930;DHT22;3504;52.616;13.238;2022-11-02T12:41:22;14.98;61.10
6930;DHT22;3504;52.616;13.238;2022-11-02T12:46:48;15.12;60.39
6930;DHT22;3504;52.616;13.238;2022-11-02T12:52:08;15.36;58.79
6930;DHT22;3504;52.616;13.238;2022-11-02T12:57:14;15.32;56.92
6930;DHT22;3504;52.616;13.238;2022-11-02T13:02:20;15.30;56.23
6930;DHT22;3504;52.616;13.238;2022-11-02T13:07:45;15.09;58.09
6930;DHT22;3504;52.616;13.238;2022-11-02T13:12:58;14.96;57.62
6930;DHT22;3504;52.616;13.238;2022-11-02T13:18:05;15.08;58.37
6930;DHT22;3504;52.616;13.238;2022-11-02T13:23:35;15.12;57.58
6930;DHT22;3504;52.616;13.238;2022-11-02T13:28:46;15.20;57.03
6930;DHT22;3504;52.616;13.238;2022-11-02T13:33:51;15.22;57.65
6930;DHT22;3504;52.616;13.238;2022-11-02T13:39:01;15.02;57.90
6930;DHT22;3504;52.616;13.238;2022-11-02T13:50:00;14.68;58.52
6930;DHT22;3504;52.616;13.238;2022-11-02T13:55:04;14.63;59.61
6930;DHT22;3504;52.616;13.238;2022-11-02T14:05:32;14.51;59.99
6930;DHT22;3504;52.616;13.238;2022-11-02T14:10:39;14.40;60.31
6930;DHT22;3504;52.616;13.238;2022-11-02T14:15:41;14.34;60.77
6930;DHT22;3504;52.616;13.238;2022-11-02T14:20:46;14.30;61.19
6930;DHT22;3504;52.616;13.238;2022-11-02T14:25:51;14.23;60.53
6930;DHT22;3504;52.616;13.238;2022-11-02T14:31:21;14.21;60.74
6930;DHT22;3504;52.616;13.238;2022-11-02T14:36:32;14.14;60.41
6930;DHT22;3504;52.616;13.238;2022-11-02T14:41:56;14.04;59.18
6930;DHT22;3504;52.616;13.238;2022-11-02T14:47:06;13.96;58.73
6930;DHT22;3504;52.616;13.238;2022-11-02T14:57:37;13.75;58.34
6930;DHT22;3504;52.616;13.238;2022-11-02T15:02:39;13.69;58.27
6930;DHT22;3504;52.616;13.238;2022-11-02T15:07:56;13.61;58.40
6930;DHT22;3504;52.616;13.238;2022-11-02T15:18:37;13.46;59.16
6930;DHT22;3504;52.616;13.238;2022-11-02T15:24:02;13.35;59.30
6930;DHT22;3504;52.616;13.238;2022-11-02T15:29:04;13.22;58.83
6930;DHT22;3504;52.616;13.238;2022-11-02T15:34:13;13.18;58.77
6930;DHT22;3504;52.616;13.238;2022-11-02T15:39:17;13.12;59.68
6930;DHT22;3504;52.616;13.238;2022-11-02T15:55:51;12.76;60.12
6930;DHT22;3504;52.616;13.238;2022-11-02T16:01:18;12.62;60.53
6930;DHT22;3504;52.616;13.238;2022-11-02T16:06:28;12.53;61.08
6930;DHT22;3504;52.616;13.238;2022-11-02T16:11:30;12.40;61.46
6930;DHT22;3504;52.616;13.238;2022-11-02T16:16:31;12.32;61.80
6930;DHT22;3504;52.616;13.238;2022-11-02T16:21:31;12.24;61.73
6930;DHT22;3504;52.616;13.238;2022-11-02T16:26:32;12.14;62.01
6930;DHT22;3504;52.616;13.238;2022-11-02T16:31:33;12.06;62.48
6930;DHT22;3504;52.616;13.238;2022-11-02T16:36:35;11.99;61.93
6930;DHT22;3504;52.616;13.238;2022-11-02T16:41:36;11.97;62.33
6930;DHT22;3504;52.616;13.238;2022-11-02T16:51:49;11.75;63.24
6930;DHT22;3504;52.616;13.238;2022-11-02T16:56:51;11.64;63.84
6930;DHT22;3504;52.616;13.238;2022-11-02T17:01:58;11.60;63.84
6930;DHT22;3504;52.616;13.238;2022-11-02T17:07:13;11.51;64.45
6930;DHT22;3504;52.616;13.238;2022-11-02T17:12:17;11.36;64.45
6930;DHT22;3504;52.616;13.238;2022-11-02T17:22:26;11.09;65.62
6930;DHT22;3504;52.616;13.238;2022-11-02T17:27:30;11.02;66.61
6930;DHT22;3504;52.616;13.238;2022-11-02T17:32:32;10.93;66.66
6930;DHT22;3504;52.616;13.238;2022-11-02T17:37:33;10.79;66.81
6930;DHT22;3504;52.616;13.238;2022-11-02T17:42:34;10.68;67.69
6930;DHT22;3504;52.616;13.238;2022-11-02T17:47:55;10.49;68.12
6930;DHT22;3504;52.616;13.238;2022-11-02T17:52:57;10.40;68.47
6930;DHT22;3504;52.616;13.238;2022-11-02T17:57:59;10.28;69.08
6930;DHT22;3504;52.616;13.238;2022-11-02T18:03:00;10.16;68.94
6930;DHT22;3504;52.616;13.238;2022-11-02T18:08:05;10.14;69.50
6930;DHT22;3504;52.616;13.238;2022-11-02T18:13:07;10.06;69.50
6930;DHT22;3504;52.616;13.238;2022-11-02T18:18:11;9.94;69.86
6930;DHT22;3504;52.616;13.238;2022-11-02T18:23:15;9.89;70.18
6930;DHT22;3504;52.616;13.238;2022-11-02T18:28:18;9.85;70.41
6930;DHT22;3504;52.616;13.238;2022-11-02T18:33:19;9.78;70.90
6930;DHT22;3504;52.616;13.238;2022-11-02T18:38:19;9.67;71.25
6930;DHT22;3504;52.616;13.238;2022-11-02T18:43:20;9.56;71.38
6930;DHT22;3504;52.616;13.238;2022-11-02T18:48:20;9.46;71.54
6930;DHT22;3504;52.616;13.238;2022-11-02T18:53:20;9.36;72.52
6930;DHT22;3504;52.616;13.238;2022-11-02T18:58:21;9.24;72.67
6930;DHT22;3504;52.616;13.238;2022-11-02T19:03:21;9.17;72.74
6930;DHT22;3504;52.616;13.238;2022-11-02T19:08:22;9.07;72.92
6930;DHT22;3504;52.616;13.238;2022-11-02T19:13:41;9.00;73.15
6930;DHT22;3504;52.616;13.238;2022-11-02T19:18:42;8.91;73.48
6930;DHT22;3504;52.616;13.238;2022-11-02T19:23:42;8.83;73.55
6930;DHT22;3504;52.616;13.238;2022-11-02T19:28:43;8.73;74.14
6930;DHT22;3504;52.616;13.238;2022-11-02T19:33:43;8.63;74.39
6930;DHT22;3504;52.616;13.238;2022-11-02T19:38:44;8.52;74.53
6930;DHT22;3504;52.616;13.238;2022-11-02T19:43:45;8.46;74.69
6930;DHT22;3504;52.616;13.238;2022-11-02T19:48:45;8.35;74.92
6930;DHT22;3504;52.616;13.238;2022-11-02T19:53:49;8.28;74.93
6930;DHT22;3504;52.616;13.238;2022-11-02T19:58:51;8.16;75.14
6930;DHT22;3504;52.616;13.238;2022-11-02T20:03:52;8.04;75.32
6930;DHT22;3504;52.616;13.238;2022-11-02T20:08:55;7.95;75.78
6930;DHT22;3504;52.616;13.238;2022-11-02T20:14:01;7.87;75.88
6930;DHT22;3504;52.616;13.238;2022-11-02T20:19:02;7.81;75.81
6930;DHT22;3504;52.616;13.238;2022-11-02T20:24:04;7.80;75.79
6930;DHT22;3504;52.616;13.238;2022-11-02T20:29:05;7.73;75.70
6930;DHT22;3504;52.616;13.238;2022-11-02T20:34:07;7.67;75.58
6930;DHT22;3504;52.616;13.238;2022-11-02T20:39:07;7.61;75.86
6930;DHT22;3504;52.616;13.238;2022-11-02T20:44:10;7.54;76.10
6930;DHT22;3504;52.616;13.238;2022-11-02T20:49:10;7.43;76.34
6930;DHT22;3504;52.616;13.238;2022-11-02T20:54:11;7.36;76.27
6930;DHT22;3504;52.616;13.238;2022-11-02T20:59:13;7.27;76.49
6930;DHT22;3504;52.616;13.238;2022-11-02T21:04:17;7.15;77.03
6930;DHT22;3504;52.616;13.238;2022-11-02T21:09:18;7.12;76.90
6930;DHT22;3504;52.616;13.238;2022-11-02T21:14:18;7.12;76.66
6930;DHT22;3504;52.616;13.238;2022-11-02T21:19:19;7.05;77.10
6930;DHT22;3504;52.616;13.238;2022-11-02T21:24:19;6.96;77.56
6930;DHT22;3504;52.616;13.238;2022-11-02T21:29:20;6.92;77.60
6930;DHT22;3504;52.616;13.238;2022-11-02T21:34:20;6.91;77.34
6930;DHT22;3504;52.616;13.238;2022-11-02T21:39:21;6.84;77.68
6930;DHT22;3504;52.616;13.238;2022-11-02T21:44:23;6.81;77.66
6930;DHT22;3504;52.616;13.238;2022-11-02T21:49:24;6.82;77.28
6930;DHT22;3504;52.616;13.238;2022-11-02T21:54:24;6.80;77.48
6930;DHT22;3504;52.616;13.238;2022-11-02T21:59:25;6.77;77.31
6930;DHT22;3504;52.616;13.238;2022-11-02T22:04:26;6.77;77.79
6930;DHT22;3504;52.616;13.238;2022-11-02T22:09:30;6.70;77.81
6930;DHT22;3504;52.616;13.238;2022-11-02T22:14:31;6.64;77.94
6930;DHT22;3504;52.616;13.238;2022-11-02T22:19:32;6.58;77.79
6930;DHT22;3504;52.616;13.238;2022-11-02T22:24:32;6.52;77.99
6930;DHT22;3504;52.616;13.238;2022-11-02T22:29:32;6.45;78.15
6930;DHT22;3504;52.616;13.238;2022-11-02T22:34:35;6.40;78.17
6930;DHT22;3504;52.616;13.238;2022-11-02T22:39:35;6.34;78.39
6930;DHT22;3504;52.616;13.238;2022-11-02T22:44:36;6.29;78.42
6930;DHT22;3504;52.616;13.238;2022-11-02T22:49:36;6.23;78.35
6930;DHT22;3504;52.616;13.238;2022-11-02T22:54:37;6.20;78.40
6930;DHT22;3504;52.616;13.238;2022-11-02T22:59:37;6.11;78.38
6930;DHT22;3504;52.616;13.238;2022-11-02T23:04:38;6.05;79.11
6930;DHT22;3504;52.616;13.238;2022-11-02T23:09:38;5.99;79.27
6930;DHT22;3504;52.616;13.238;2022-11-02T23:14:39;6.00;78.89
6930;DHT22;3504;52.616;13.238;2022-11-02T23:19:39;5.98;78.99
6930;DHT22;3504;52.616;13.238;2022-11-02T23:25:02;5.92;78.96
6930;DHT22;3504;52.616;13.238;2022-11-02T23:30:17;5.86;79.19
6930;DHT22;3504;52.616;13.238;2022-11-02T23:35:36;5.83;79.06
6930;DHT22;3504;52.616;13.238;2022-11-02T23:40:57;5.81;79.00
6930;DHT22;3504;52.616;13.238;2022-11-02T23:45:57;5.76;79.06
6930;DHT22;3504;52.616;13.238;2022-11-02T23:50:58;5.79;79.00
6930;DHT22;3504;52.616;13.238;2022-11-02T23:56:17;5.75;79.02
